createdAt,value
2022-08-16T00:01:33.688Z,15.00
2022-08-16T00:04:05.194Z,14.60
2022-08-16T00:06:33.856Z,14.30
2022-08-16T00:09:05.459Z,15.00
2022-08-16T00:11:34.942Z,14.90
2022-08-16T00:14:08.661Z,14.90
2022-08-16T00:17:01.375Z,15.00
2022-08-16T00:19:41.554Z,13.70
2022-08-16T00:22:13.570Z,14.30
2022-08-16T00:24:50.115Z,15.30
2022-08-16T00:27:19.973Z,14.10
2022-08-16T00:30:08.604Z,14.50
2022-08-16T00:32:39.236Z,14.80
2022-08-16T00:35:15.514Z,15.00
2022-08-16T00:37:56.700Z,14.50
2022-08-16T00:40:43.676Z,14.60
2022-08-16T00:43:24.055Z,17.00
2022-08-16T00:46:34.243Z,15.20
2022-08-16T00:49:17.243Z,13.80
2022-08-16T00:51:55.079Z,13.80
2022-08-16T00:54:29.831Z,13.70
2022-08-16T00:57:05.538Z,15.30
2022-08-16T00:59:50.731Z,14.80
2022-08-16T01:02:31.619Z,14.80
2022-08-16T01:05:10.980Z,14.00
2022-08-16T01:07:51.739Z,14.20
2022-08-16T01:10:32.416Z,14.50
2022-08-16T01:13:09.022Z,13.50
2022-08-16T01:15:45.574Z,14.30
2022-08-16T01:18:40.377Z,14.50
2022-08-16T01:21:33.495Z,14.50
2022-08-16T01:24:53.210Z,15.30
2022-08-16T01:27:18.670Z,14.90
2022-08-16T01:30:01.972Z,13.40
2022-08-16T01:32:36.222Z,14.70
2022-08-16T01:35:16.753Z,14.90
2022-08-16T01:37:52.989Z,13.90
2022-08-16T01:40:27.105Z,15.90
2022-08-16T01:42:56.276Z,14.70
2022-08-16T01:45:24.668Z,14.90
2022-08-16T01:48:19.191Z,14.60
2022-08-16T01:51:09.506Z,14.50
2022-08-16T01:53:41.330Z,16.00
2022-08-16T01:56:23.428Z,15.00
2022-08-16T01:58:59.770Z,14.90
2022-08-16T02:01:29.188Z,14.70
2022-08-16T02:04:10.266Z,14.40
2022-08-16T02:06:46.921Z,15.20
2022-08-16T02:09:19.614Z,15.20
2022-08-16T02:11:54.318Z,15.10
2022-08-16T02:14:27.335Z,16.60
2022-08-16T02:16:58.540Z,15.20
2022-08-16T02:19:58.702Z,16.30
2022-08-16T02:22:34.603Z,16.00
2022-08-16T02:25:23.408Z,15.30
2022-08-16T02:27:51.814Z,14.40
2022-08-16T02:30:36.666Z,15.80
2022-08-16T02:33:15.477Z,15.70
2022-08-16T02:35:53.691Z,15.70
2022-08-16T02:38:24.157Z,16.20
2022-08-16T02:40:54.343Z,16.00
2022-08-16T02:43:26.914Z,16.70
2022-08-16T02:45:57.399Z,15.90
2022-08-16T02:48:30.837Z,15.90
2022-08-16T02:51:06.477Z,16.30
2022-08-16T02:53:43.568Z,15.50
2022-08-16T02:56:14.962Z,15.10
2022-08-16T02:58:46.321Z,16.90
2022-08-16T03:01:25.463Z,17.00
2022-08-16T03:04:46.455Z,16.70
2022-08-16T03:06:57.497Z,16.90
2022-08-16T03:09:28.833Z,17.50
2022-08-16T03:12:02.552Z,17.70
2022-08-16T03:14:31.628Z,16.80
2022-08-16T03:17:01.858Z,17.50
2022-08-16T03:19:47.443Z,18.10
2022-08-16T03:22:28.150Z,17.40
2022-08-16T03:25:01.235Z,16.80
2022-08-16T03:27:32.279Z,17.20
2022-08-16T03:30:17.353Z,16.70
2022-08-16T03:32:51.251Z,17.10
2022-08-16T03:35:32.446Z,17.70
2022-08-16T03:38:05.053Z,17.20
2022-08-16T03:40:54.570Z,16.30
2022-08-16T03:43:24.508Z,17.50
2022-08-16T03:46:13.670Z,16.80
2022-08-16T03:49:02.204Z,16.20
2022-08-16T03:51:30.438Z,16.50
2022-08-16T03:54:01.288Z,16.40
2022-08-16T03:56:30.544Z,17.10
2022-08-16T03:58:59.661Z,16.30
2022-08-16T04:01:29.952Z,16.60
2022-08-16T04:03:58.258Z,16.40
2022-08-16T04:06:30.732Z,16.20
2022-08-16T04:08:58.706Z,16.80
2022-08-16T04:11:26.664Z,17.30
2022-08-16T04:14:08.582Z,16.50
2022-08-16T04:16:53.529Z,15.80
2022-08-16T04:19:21.627Z,16.00
2022-08-16T04:21:49.850Z,16.30
2022-08-16T04:24:17.610Z,15.60
2022-08-16T04:26:45.990Z,18.20
2022-08-16T04:29:23.297Z,16.00
2022-08-16T04:31:56.576Z,16.40
2022-08-16T04:34:31.179Z,18.20
2022-08-16T04:37:01.928Z,16.20
2022-08-16T04:39:44.905Z,16.10
2022-08-16T04:42:26.013Z,15.90
2022-08-16T04:44:58.617Z,16.60
2022-08-16T04:47:35.443Z,16.00
2022-08-16T04:50:14.459Z,15.60
2022-08-16T04:52:46.203Z,16.70
2022-08-16T04:55:20.965Z,16.30
2022-08-16T04:58:00.425Z,16.20
2022-08-16T05:00:34.514Z,16.80
2022-08-16T05:03:07.382Z,20.30
2022-08-16T05:05:44.832Z,17.60
2022-08-16T05:08:30.484Z,16.60
2022-08-16T05:11:03.480Z,15.90
2022-08-16T05:13:41.311Z,16.10
2022-08-16T05:16:32.256Z,16.40
2022-08-16T05:19:05.364Z,16.10
2022-08-16T05:21:39.931Z,17.50
2022-08-16T05:24:08.957Z,14.80
2022-08-16T05:26:40.858Z,14.80
2022-08-16T05:29:15.254Z,15.50
2022-08-16T05:31:48.027Z,14.90
2022-08-16T05:34:20.355Z,14.20
2022-08-16T05:36:53.548Z,14.50
2022-08-16T05:39:22.450Z,14.80
2022-08-16T05:41:52.389Z,16.30
2022-08-16T05:44:25.224Z,14.10
2022-08-16T05:46:56.718Z,13.10
2022-08-16T05:49:39.510Z,13.90
2022-08-16T05:52:10.679Z,13.00
2022-08-16T05:54:46.775Z,13.40
2022-08-16T05:57:18.762Z,15.90
2022-08-16T05:59:50.640Z,12.70
2022-08-16T06:02:33.966Z,13.40
2022-08-16T06:05:03.771Z,13.00
2022-08-16T06:07:32.436Z,13.30
2022-08-16T06:10:02.271Z,13.60
2022-08-16T06:12:31.431Z,14.80
2022-08-16T06:15:04.299Z,15.00
2022-08-16T06:17:42.438Z,13.90
2022-08-16T06:20:24.266Z,13.00
2022-08-16T06:23:03.254Z,12.90
2022-08-16T06:25:35.770Z,12.80
2022-08-16T06:28:17.010Z,13.60
2022-08-16T06:30:59.125Z,12.60
2022-08-16T06:33:29.957Z,15.90
2022-08-16T06:36:14.239Z,13.10
2022-08-16T06:38:55.855Z,12.70
2022-08-16T06:41:27.273Z,12.60
2022-08-16T06:43:57.566Z,11.00
2022-08-16T06:46:34.559Z,16.20
2022-08-16T06:49:05.765Z,11.50
2022-08-16T06:51:48.333Z,13.80
2022-08-16T06:54:17.747Z,15.10
2022-08-16T06:56:46.192Z,11.20
2022-08-16T06:59:14.498Z,11.80
2022-08-16T07:01:52.088Z,14.40
2022-08-16T07:04:33.261Z,10.00
2022-08-16T07:07:09.895Z,10.90
2022-08-16T07:09:39.518Z,10.80
2022-08-16T07:12:08.518Z,10.50
2022-08-16T07:14:36.576Z,13.90
2022-08-16T07:17:11.567Z,11.20
2022-08-16T07:20:03.153Z,12.50
2022-08-16T07:22:38.848Z,13.10
2022-08-16T07:25:10.506Z,11.80
2022-08-16T07:27:41.401Z,10.90
2022-08-16T07:30:38.060Z,11.50
2022-08-16T07:33:02.525Z,10.40
2022-08-16T07:35:31.110Z,13.80
2022-08-16T07:38:00.001Z,9.90
2022-08-16T07:40:49.559Z,9.60
2022-08-16T07:43:16.655Z,9.30
2022-08-16T07:45:47.222Z,11.20
2022-08-16T07:48:22.261Z,16.10
2022-08-16T07:50:56.310Z,10.80
2022-08-16T07:53:30.038Z,10.30
2022-08-16T07:56:00.726Z,11.30
2022-08-16T07:58:33.779Z,10.10
2022-08-16T08:01:10.699Z,10.90
2022-08-16T08:03:48.404Z,10.60
2022-08-16T08:06:19.806Z,9.70
2022-08-16T08:08:49.240Z,11.90
2022-08-16T08:11:18.346Z,11.00
2022-08-16T08:13:46.609Z,9.00
2022-08-16T08:16:18.343Z,10.40
2022-08-16T08:18:50.111Z,11.20
2022-08-16T08:21:19.573Z,9.60
2022-08-16T08:23:57.256Z,10.70
2022-08-16T08:26:25.456Z,11.60
2022-08-16T08:28:53.506Z,12.40
2022-08-16T08:31:29.579Z,9.50
2022-08-16T08:34:00.115Z,8.80
2022-08-16T08:36:34.244Z,9.90
2022-08-16T08:39:13.138Z,10.00
2022-08-16T08:41:43.619Z,11.90
2022-08-16T08:44:28.815Z,10.30
2022-08-16T08:47:11.081Z,9.50
2022-08-16T08:49:50.386Z,9.40
2022-08-16T08:52:34.583Z,7.90
2022-08-16T08:55:09.078Z,13.20
2022-08-16T08:57:47.839Z,9.60
2022-08-16T09:00:21.285Z,8.80
2022-08-16T09:03:07.912Z,10.20
2022-08-16T09:05:38.373Z,8.70
2022-08-16T09:08:07.409Z,9.10
2022-08-16T09:10:39.549Z,9.50
2022-08-16T09:13:10.684Z,12.50
2022-08-16T09:15:40.106Z,13.00
2022-08-16T09:18:25.263Z,10.50
2022-08-16T09:20:58.371Z,10.60
2022-08-16T09:23:36.409Z,9.10
2022-08-16T09:26:44.167Z,11.00
2022-08-16T09:29:15.121Z,9.90
2022-08-16T09:31:44.128Z,12.30
2022-08-16T09:34:18.632Z,10.20
2022-08-16T09:36:47.669Z,9.80
2022-08-16T09:39:16.653Z,9.70
2022-08-16T09:41:53.941Z,9.90
2022-08-16T09:45:11.627Z,10.10
2022-08-16T09:47:13.250Z,13.40
2022-08-16T09:49:41.383Z,10.00
2022-08-16T09:52:10.619Z,12.10
2022-08-16T09:54:44.505Z,9.60
2022-08-16T09:57:15.006Z,11.90
2022-08-16T09:59:43.297Z,10.80
2022-08-16T10:02:23.034Z,9.60
2022-08-16T10:04:58.747Z,10.20
2022-08-16T10:07:44.350Z,9.80
2022-08-16T10:10:18.697Z,9.70
2022-08-16T10:13:16.267Z,8.60
2022-08-16T10:15:55.531Z,9.00
2022-08-16T10:18:56.598Z,8.50
2022-08-16T10:21:18.395Z,12.40
2022-08-16T10:23:48.869Z,8.70
2022-08-16T10:27:18.381Z,9.30
2022-08-16T10:29:09.022Z,11.80
2022-08-16T10:31:44.227Z,11.30
2022-08-16T10:34:31.130Z,11.70
2022-08-16T10:37:02.339Z,9.00
2022-08-16T10:39:41.118Z,10.30
2022-08-16T10:42:13.275Z,8.30
2022-08-16T10:44:42.311Z,11.10
2022-08-16T10:47:11.974Z,8.30
2022-08-16T10:49:39.914Z,13.60
2022-08-16T10:52:18.393Z,14.50
2022-08-16T10:57:35.422Z,8.60
2022-08-16T11:00:21.391Z,9.00
2022-08-16T11:02:58.461Z,10.00
2022-08-16T11:05:59.097Z,9.30
2022-08-16T11:08:31.188Z,9.60
2022-08-16T11:11:11.799Z,10.10
2022-08-16T11:14:11.207Z,9.90
2022-08-16T11:19:26.245Z,11.20
2022-08-16T11:22:39.367Z,10.10
2022-08-16T11:24:45.453Z,10.30
2022-08-16T11:27:35.855Z,10.40
2022-08-16T11:30:09.106Z,10.40
2022-08-16T11:32:38.190Z,10.10
2022-08-16T11:35:14.781Z,11.00
2022-08-16T11:40:52.673Z,12.20
2022-08-16T11:43:26.439Z,11.60
2022-08-16T11:45:57.017Z,10.80
2022-08-16T11:48:38.668Z,12.50
2022-08-16T11:51:07.459Z,12.40
2022-08-16T11:53:36.070Z,12.70
2022-08-16T11:56:06.269Z,11.10
2022-08-16T11:58:34.990Z,11.10
2022-08-16T12:01:03.120Z,11.40
2022-08-16T12:03:34.428Z,11.50
2022-08-16T12:06:24.560Z,11.50
2022-08-16T12:09:01.006Z,10.60
2022-08-16T12:11:32.104Z,12.30
2022-08-16T12:14:04.516Z,10.50
2022-08-16T12:16:34.970Z,10.30
2022-08-16T12:19:10.729Z,10.50
2022-08-16T12:21:58.665Z,10.40
2022-08-16T12:24:30.090Z,13.60
2022-08-16T12:27:00.027Z,11.80
2022-08-16T12:29:30.205Z,12.50
2022-08-16T12:32:01.556Z,10.70
2022-08-16T12:34:47.923Z,9.80
2022-08-16T12:37:19.675Z,13.70
2022-08-16T12:39:51.041Z,12.10
2022-08-16T12:42:20.670Z,9.70
2022-08-16T12:44:50.199Z,8.00
2022-08-16T12:47:38.130Z,11.50
2022-08-16T12:50:10.598Z,8.40
2022-08-16T12:52:44.407Z,7.90
2022-08-16T12:55:24.231Z,8.10
2022-08-16T12:58:01.813Z,9.60
2022-08-16T13:00:33.447Z,8.50
2022-08-16T13:03:03.655Z,6.90
2022-08-16T13:08:00.815Z,8.10
2022-08-16T13:10:37.646Z,6.30
2022-08-16T13:13:09.335Z,6.30
2022-08-16T13:15:55.971Z,8.20
2022-08-16T13:18:34.755Z,7.50
2022-08-16T13:21:07.058Z,8.20
2022-08-16T13:23:36.951Z,8.70
2022-08-16T13:26:17.818Z,9.40
2022-08-16T13:28:47.864Z,8.10
2022-08-16T13:31:17.032Z,10.90
2022-08-16T13:33:45.504Z,7.50
2022-08-16T13:36:32.196Z,8.70
2022-08-16T13:39:03.885Z,11.30
2022-08-16T13:41:32.650Z,8.20
2022-08-16T13:44:00.991Z,7.40
2022-08-16T13:46:32.605Z,7.80
2022-08-16T13:49:00.924Z,7.40
2022-08-16T13:51:30.614Z,9.60
2022-08-16T13:54:04.483Z,9.20
2022-08-16T13:56:37.432Z,10.50
2022-08-16T13:59:14.347Z,12.20
2022-08-16T14:01:54.662Z,10.10
2022-08-16T14:04:29.256Z,7.40
2022-08-16T14:06:59.205Z,9.70
2022-08-16T14:09:29.413Z,7.10
2022-08-16T14:12:00.884Z,9.80
2022-08-16T14:14:30.292Z,8.00
2022-08-16T14:17:05.006Z,8.20
2022-08-16T14:19:45.017Z,7.20
2022-08-16T14:22:30.439Z,9.80
2022-08-16T14:25:00.735Z,8.30
2022-08-16T14:27:31.176Z,8.70
2022-08-16T14:30:01.398Z,7.80
2022-08-16T14:32:33.442Z,9.20
2022-08-16T14:35:07.446Z,9.60
2022-08-16T14:37:36.486Z,8.10
2022-08-16T14:40:07.584Z,8.20
2022-08-16T14:42:36.749Z,10.60
2022-08-16T14:45:09.154Z,7.90
2022-08-16T14:47:38.530Z,8.70
2022-08-16T14:50:10.164Z,7.70
2022-08-16T14:52:56.399Z,8.50
2022-08-16T14:55:29.239Z,7.40
2022-08-16T14:57:58.469Z,7.60
2022-08-16T15:00:36.451Z,9.60
2022-08-16T15:03:09.751Z,8.70
2022-08-16T15:05:40.740Z,7.70
2022-08-16T15:08:10.451Z,8.50
2022-08-16T15:10:42.737Z,11.10
2022-08-16T15:13:15.098Z,8.50
2022-08-16T15:15:44.132Z,7.90
2022-08-16T15:18:23.433Z,9.50
2022-08-16T15:20:57.769Z,9.00
2022-08-16T15:23:28.625Z,7.80
2022-08-16T15:26:02.923Z,9.30
2022-08-16T15:28:37.314Z,8.60
2022-08-16T15:31:10.005Z,8.60
2022-08-16T15:33:51.090Z,7.70
2022-08-16T15:36:27.201Z,7.90
2022-08-16T15:39:05.781Z,8.30
2022-08-16T15:41:46.860Z,7.70
2022-08-16T15:44:22.637Z,7.40
2022-08-16T15:46:54.593Z,8.70
2022-08-16T15:49:38.676Z,9.70
2022-08-16T15:52:20.471Z,9.40
2022-08-16T15:54:53.001Z,8.30
2022-08-16T15:57:28.536Z,8.60
2022-08-16T16:00:15.406Z,9.30
2022-08-16T16:02:45.478Z,8.30
2022-08-16T16:05:14.631Z,12.70
2022-08-16T16:07:55.911Z,10.20
2022-08-16T16:10:29.379Z,10.30
2022-08-16T16:13:00.954Z,7.50
2022-08-16T16:15:33.317Z,7.30
2022-08-16T16:18:09.533Z,10.00
2022-08-16T16:20:47.357Z,9.70
2022-08-16T16:23:23.502Z,9.20
2022-08-16T16:25:55.020Z,8.50
2022-08-16T16:29:05.479Z,6.60
2022-08-16T16:31:18.638Z,7.30
2022-08-16T16:33:51.504Z,10.20
2022-08-16T16:36:24.313Z,7.20
2022-08-16T16:38:56.630Z,9.60
2022-08-16T16:41:28.396Z,7.30
2022-08-16T16:44:01.297Z,7.80
2022-08-16T16:46:43.039Z,7.60
2022-08-16T16:49:13.963Z,7.30
2022-08-16T16:51:44.472Z,11.00
2022-08-16T16:54:13.379Z,7.20
2022-08-16T16:56:59.594Z,7.80
2022-08-16T16:59:28.433Z,8.10
2022-08-16T17:02:38.529Z,8.50
2022-08-16T17:04:48.550Z,11.40
2022-08-16T17:07:18.049Z,8.00
2022-08-16T17:09:54.059Z,12.20
2022-08-16T17:12:24.891Z,8.30
2022-08-16T17:14:55.309Z,9.00
2022-08-16T17:17:24.382Z,9.30
2022-08-16T17:19:52.553Z,13.80
2022-08-16T17:22:23.364Z,8.20
2022-08-16T17:24:53.564Z,7.80
2022-08-16T17:27:33.676Z,11.20
2022-08-16T17:30:20.181Z,8.40
2022-08-16T17:33:05.670Z,11.30
2022-08-16T17:35:37.085Z,10.40
2022-08-16T17:38:09.172Z,9.70
2022-08-16T17:40:47.771Z,9.60
2022-08-16T17:43:36.057Z,11.60
2022-08-16T17:46:06.438Z,9.70
2022-08-16T17:48:54.894Z,12.40
2022-08-16T17:51:28.875Z,11.50
2022-08-16T17:53:57.478Z,9.60
2022-08-16T17:56:25.530Z,11.20
2022-08-16T17:58:53.424Z,10.10
2022-08-16T18:01:26.777Z,9.20
2022-08-16T18:04:07.804Z,9.40
2022-08-16T18:06:41.157Z,12.10
2022-08-16T18:09:10.337Z,9.60
2022-08-16T18:11:40.699Z,11.50
2022-08-16T18:14:10.558Z,8.70
2022-08-16T18:16:41.004Z,11.10
2022-08-16T18:19:11.615Z,11.50
2022-08-16T18:21:59.878Z,13.90
2022-08-16T18:24:29.596Z,9.60
2022-08-16T18:27:25.632Z,10.00
2022-08-16T18:29:47.415Z,11.60
2022-08-16T18:32:22.003Z,10.10
2022-08-16T18:34:55.362Z,12.90
2022-08-16T18:37:24.750Z,13.50
2022-08-16T18:39:53.064Z,13.10
2022-08-16T18:42:21.316Z,13.20
2022-08-16T18:44:49.372Z,12.90
2022-08-16T18:47:17.359Z,11.90
2022-08-16T18:49:45.716Z,17.80
2022-08-16T18:52:25.057Z,11.50
2022-08-16T18:55:01.794Z,12.30
2022-08-16T18:57:31.538Z,12.80
2022-08-16T18:59:59.606Z,12.00
2022-08-16T19:02:56.806Z,11.80
2022-08-16T19:05:24.515Z,13.40
2022-08-16T19:07:52.596Z,13.30
2022-08-16T19:10:21.080Z,13.20
2022-08-16T19:12:49.298Z,14.00
2022-08-16T19:15:21.911Z,13.00
2022-08-16T19:17:50.201Z,11.90
2022-08-16T19:20:22.775Z,12.40
2022-08-16T19:23:05.233Z,14.30
2022-08-16T19:25:48.728Z,11.10
2022-08-16T19:28:51.734Z,11.00
2022-08-16T19:31:25.222Z,12.00
2022-08-16T19:33:57.020Z,16.00
2022-08-16T19:36:37.130Z,11.20
2022-08-16T19:39:11.737Z,14.90
2022-08-16T19:41:53.784Z,12.90
2022-08-16T19:44:23.662Z,11.30
2022-08-16T19:46:52.031Z,12.30
2022-08-16T19:49:20.207Z,16.40
2022-08-16T19:51:48.939Z,16.90
2022-08-16T19:54:18.099Z,14.00
2022-08-16T19:56:46.462Z,12.60
2022-08-16T19:59:20.529Z,13.10
2022-08-16T20:01:52.373Z,14.00
2022-08-16T20:04:22.872Z,15.10
2022-08-16T20:06:52.453Z,12.80
2022-08-16T20:09:23.918Z,14.30
2022-08-16T20:11:53.940Z,15.00
2022-08-16T20:14:25.338Z,17.20
2022-08-16T20:17:00.886Z,17.70
2022-08-16T20:19:36.040Z,13.70
2022-08-16T20:22:30.020Z,15.10
2022-08-16T20:25:07.509Z,14.90
2022-08-16T20:27:40.526Z,15.40
2022-08-16T20:30:11.294Z,16.50
2022-08-16T20:32:39.327Z,15.00
2022-08-16T20:35:10.679Z,13.30
2022-08-16T20:37:39.874Z,13.30
2022-08-16T20:40:28.441Z,16.00
2022-08-16T20:43:06.708Z,14.00
2022-08-16T20:45:36.541Z,13.50
2022-08-16T20:48:11.710Z,14.20
2022-08-16T20:50:39.902Z,16.00
2022-08-16T20:53:09.154Z,15.00
2022-08-16T20:55:40.606Z,17.30
2022-08-16T20:58:08.848Z,13.60
2022-08-16T21:00:37.359Z,17.30
2022-08-16T21:03:10.282Z,14.30
2022-08-16T21:05:38.717Z,17.00
2022-08-16T21:08:28.687Z,16.10
2022-08-16T21:10:56.826Z,14.90
2022-08-16T21:13:26.101Z,17.20
2022-08-16T21:15:54.452Z,17.60
2022-08-16T21:18:22.526Z,15.20
2022-08-16T21:20:50.796Z,21.00
2022-08-16T21:23:18.969Z,14.90
2022-08-16T21:25:54.819Z,16.00
2022-08-16T21:28:38.990Z,17.90
2022-08-16T21:31:13.430Z,17.30
2022-08-16T21:33:43.436Z,17.40
2022-08-16T21:36:12.721Z,16.60
2022-08-16T21:38:40.996Z,15.90
2022-08-16T21:41:12.077Z,15.10
2022-08-16T21:43:40.621Z,15.80
2022-08-16T21:46:09.202Z,15.10
2022-08-16T21:48:40.695Z,20.30
2022-08-16T21:51:13.264Z,16.50
2022-08-16T21:53:43.286Z,16.80
2022-08-16T21:56:12.715Z,16.60
2022-08-16T21:58:52.791Z,19.30
2022-08-16T22:01:23.355Z,17.90
2022-08-16T22:04:35.241Z,16.80
2022-08-16T22:06:42.507Z,16.70
2022-08-16T22:09:15.509Z,17.10
2022-08-16T22:11:44.493Z,17.70
2022-08-16T22:14:12.967Z,17.00
2022-08-16T22:16:42.217Z,17.30
2022-08-16T22:19:12.363Z,17.60
2022-08-16T22:21:40.868Z,22.00
2022-08-16T22:24:10.165Z,20.90
2022-08-16T22:26:43.061Z,21.70
2022-08-16T22:29:15.238Z,19.00
2022-08-16T22:31:44.618Z,18.10
2022-08-16T22:34:14.030Z,22.60
2022-08-16T22:36:43.012Z,19.50
2022-08-16T22:39:13.612Z,18.70
2022-08-16T22:41:45.851Z,16.90
2022-08-16T22:44:14.997Z,21.40
2022-08-16T22:46:44.659Z,16.80
2022-08-16T22:49:13.367Z,19.20
2022-08-16T22:51:42.535Z,20.30
2022-08-16T22:54:43.845Z,20.30
2022-08-16T22:56:59.461Z,18.10
2022-08-16T22:59:30.559Z,21.50
2022-08-16T23:02:02.589Z,20.80
2022-08-16T23:04:30.913Z,21.10
2022-08-16T23:06:59.085Z,20.80
2022-08-16T23:09:27.296Z,18.30
2022-08-16T23:11:55.542Z,20.50
2022-08-16T23:14:23.491Z,20.10
2022-08-16T23:16:51.461Z,19.40
2022-08-16T23:19:19.639Z,19.20
2022-08-16T23:21:49.150Z,21.20
2022-08-16T23:24:20.757Z,18.90
2022-08-16T23:26:49.454Z,18.80
2022-08-16T23:29:23.796Z,18.20
2022-08-16T23:31:56.568Z,21.10
2022-08-16T23:34:27.184Z,18.10
2022-08-16T23:36:56.464Z,20.10
2022-08-16T23:39:24.870Z,18.50
2022-08-16T23:41:53.163Z,18.60
2022-08-16T23:44:56.047Z,18.60
2022-08-16T23:47:10.100Z,19.40
2022-08-16T23:49:56.291Z,18.10
2022-08-16T23:52:53.248Z,18.00
2022-08-16T23:55:16.975Z,18.70
2022-08-16T23:57:46.790Z,18.40
